sensor_id;sensor_type;location;lat;lon;timestamp;temperature;humidity
6954;DHT22;3516;47.980;8.808;2022-10-30T05:17:17;21.40;99.90
6954;DHT22;3516;47.980;8.808;2022-10-30T05:19:44;21.40;99.90
6954;DHT22;3516;47.980;8.808;2022-10-30T05:22:11;21.40;99.90
6954;DHT22;3516;47.980;8.808;2022-10-30T05:24:38;21.40;99.90
6954;DHT22;3516;47.980;8.808;2022-10-30T05:27:04;21.40;99.90
6954;DHT22;3516;47.980;8.808;2022-10-30T05:29:31;21.40;99.90
6954;DHT22;3516;47.980;8.808;2022-10-30T05:31:57;21.40;99.90
6954;DHT22;3516;47.980;8.808;2022-10-30T05:34:25;21.50;99.90
6954;DHT22;3516;47.980;8.808;2022-10-30T05:36:52;21.40;99.90
6954;DHT22;3516;47.980;8.808;2022-10-30T05:39:18;21.40;99.90
6954;DHT22;3516;47.980;8.808;2022-10-30T05:41:45;21.40;99.90
6954;DHT22;3516;47.980;8.808;2022-10-30T05:44:12;21.50;99.90
6954;DHT22;3516;47.980;8.808;2022-10-30T05:46:38;21.50;99.90
6954;DHT22;3516;47.980;8.808;2022-10-30T05:49:05;21.50;99.90
6954;DHT22;3516;47.980;8.808;2022-10-30T05:51:33;21.50;99.90
6954;DHT22;3516;47.980;8.808;2022-10-30T05:53:59;21.50;99.90
6954;DHT22;3516;47.980;8.808;2022-10-30T05:56:26;21.50;99.90
6954;DHT22;3516;47.980;8.808;2022-10-30T05:58:52;21.50;99.90
6954;DHT22;3516;47.980;8.808;2022-10-30T06:01:19;21.50;99.90
6954;DHT22;3516;47.980;8.808;2022-10-30T06:03:46;21.50;99.90
6954;DHT22;3516;47.980;8.808;2022-10-30T06:06:12;21.50;99.90
6954;DHT22;3516;47.980;8.808;2022-10-30T06:08:40;21.50;99.90
6954;DHT22;3516;47.980;8.808;2022-10-30T06:11:07;21.50;99.90
6954;DHT22;3516;47.980;8.808;2022-10-30T06:13:33;21.50;99.90
6954;DHT22;3516;47.980;8.808;2022-10-30T06:16:00;21.50;99.90
6954;DHT22;3516;47.980;8.808;2022-10-30T06:18:26;21.50;99.90
6954;DHT22;3516;47.980;8.808;2022-10-30T06:20:53;21.50;99.90
6954;DHT22;3516;47.980;8.808;2022-10-30T06:23:19;21.50;99.90
6954;DHT22;3516;47.980;8.808;2022-10-30T06:25:47;21.50;99.90
6954;DHT22;3516;47.980;8.808;2022-10-30T06:28:14;21.50;99.90
6954;DHT22;3516;47.980;8.808;2022-10-30T06:30:40;21.50;99.90
6954;DHT22;3516;47.980;8.808;2022-10-30T06:33:08;21.50;99.90
6954;DHT22;3516;47.980;8.808;2022-10-30T06:35:34;21.50;99.90
6954;DHT22;3516;47.980;8.808;2022-10-30T06:38:01;21.50;99.90
6954;DHT22;3516;47.980;8.808;2022-10-30T06:40:29;21.50;99.90
6954;DHT22;3516;47.980;8.808;2022-10-30T06:42:57;21.50;99.90
6954;DHT22;3516;47.980;8.808;2022-10-30T06:45:24;21.50;99.90
6954;DHT22;3516;47.980;8.808;2022-10-30T06:47:50;21.50;99.90
6954;DHT22;3516;47.980;8.808;2022-10-30T06:50:18;21.50;99.90
6954;DHT22;3516;47.980;8.808;2022-10-30T06:52:44;21.50;99.90
6954;DHT22;3516;47.980;8.808;2022-10-30T06:55:12;21.50;99.90
6954;DHT22;3516;47.980;8.808;2022-10-30T06:57:39;21.50;99.90
6954;DHT22;3516;47.980;8.808;2022-10-30T07:00:07;21.50;99.90
6954;DHT22;3516;47.980;8.808;2022-10-30T07:02:34;21.50;99.90
6954;DHT22;3516;47.980;8.808;2022-10-30T07:05:01;21.50;99.90
6954;DHT22;3516;47.980;8.808;2022-10-30T07:07:27;21.50;99.90
6954;DHT22;3516;47.980;8.808;2022-10-30T07:09:54;21.50;99.90
6954;DHT22;3516;47.980;8.808;2022-10-30T07:12:20;21.50;99.90
6954;DHT22;3516;47.980;8.808;2022-10-30T07:14:47;21.50;99.90
6954;DHT22;3516;47.980;8.808;2022-10-30T07:17:15;21.50;99.90
6954;DHT22;3516;47.980;8.808;2022-10-30T07:19:41;21.50;99.90
6954;DHT22;3516;47.980;8.808;2022-10-30T07:22:08;21.50;99.90
6954;DHT22;3516;47.980;8.808;2022-10-30T07:24:34;21.50;99.90
6954;DHT22;3516;47.980;8.808;2022-10-30T07:27:01;21.50;99.90
6954;DHT22;3516;47.980;8.808;2022-10-30T07:29:28;21.50;99.90
6954;DHT22;3516;47.980;8.808;2022-10-30T07:31:54;21.50;99.90
6954;DHT22;3516;47.980;8.808;2022-10-30T07:34:22;21.50;99.90
6954;DHT22;3516;47.980;8.808;2022-10-30T07:36:49;21.50;99.90
6954;DHT22;3516;47.980;8.808;2022-10-30T07:39:15;21.50;99.90
6954;DHT22;3516;47.980;8.808;2022-10-30T07:41:42;21.50;99.90
6954;DHT22;3516;47.980;8.808;2022-10-30T07:44:08;21.50;99.90
6954;DHT22;3516;47.980;8.808;2022-10-30T07:46:35;21.50;99.90
6954;DHT22;3516;47.980;8.808;2022-10-30T07:49:01;21.50;99.90
6954;DHT22;3516;47.980;8.808;2022-10-30T07:51:29;21.50;99.90
6954;DHT22;3516;47.980;8.808;2022-10-30T07:53:56;21.50;99.90
6954;DHT22;3516;47.980;8.808;2022-10-30T07:56:22;21.50;99.90
6954;DHT22;3516;47.980;8.808;2022-10-30T07:58:49;21.50;99.90
6954;DHT22;3516;47.980;8.808;2022-10-30T08:01:15;21.50;99.90
6954;DHT22;3516;47.980;8.808;2022-10-30T08:03:42;21.50;99.90
6954;DHT22;3516;47.980;8.808;2022-10-30T08:06:08;21.50;99.90
6954;DHT22;3516;47.980;8.808;2022-10-30T08:08:37;21.50;99.90
6954;DHT22;3516;47.980;8.808;2022-10-30T08:11:04;21.50;99.90
6954;DHT22;3516;47.980;8.808;2022-10-30T08:13:31;21.50;99.90
6954;DHT22;3516;47.980;8.808;2022-10-30T08:15:57;21.50;99.90
6954;DHT22;3516;47.980;8.808;2022-10-30T08:18:24;21.50;99.90
6954;DHT22;3516;47.980;8.808;2022-10-30T08:20:51;21.50;99.90
6954;DHT22;3516;47.980;8.808;2022-10-30T08:23:18;21.50;99.90
6954;DHT22;3516;47.980;8.808;2022-10-30T08:25:47;21.50;99.90
6954;DHT22;3516;47.980;8.808;2022-10-30T08:28:14;21.50;99.90
6954;DHT22;3516;47.980;8.808;2022-10-30T08:30:41;21.50;99.90
6954;DHT22;3516;47.980;8.808;2022-10-30T08:33:09;21.50;99.90
6954;DHT22;3516;47.980;8.808;2022-10-30T08:35:38;21.50;99.90
6954;DHT22;3516;47.980;8.808;2022-10-30T08:38:04;21.50;99.90
6954;DHT22;3516;47.980;8.808;2022-10-30T08:40:31;21.40;99.90
6954;DHT22;3516;47.980;8.808;2022-10-30T08:43:00;21.40;99.90
6954;DHT22;3516;47.980;8.808;2022-10-30T08:45:27;21.40;99.90
6954;DHT22;3516;47.980;8.808;2022-10-30T08:47:56;21.40;99.90
6954;DHT22;3516;47.980;8.808;2022-10-30T08:50:23;21.40;99.90
6954;DHT22;3516;47.980;8.808;2022-10-30T08:52:50;21.40;99.90
6954;DHT22;3516;47.980;8.808;2022-10-30T08:55:16;21.40;99.90
6954;DHT22;3516;47.980;8.808;2022-10-30T08:57:50;21.40;99.90
6954;DHT22;3516;47.980;8.808;2022-10-30T09:00:18;21.40;99.90
6954;DHT22;3516;47.980;8.808;2022-10-30T09:02:45;21.40;99.90
6954;DHT22;3516;47.980;8.808;2022-10-30T09:05:11;21.40;99.90
6954;DHT22;3516;47.980;8.808;2022-10-30T09:07:38;21.40;99.90
6954;DHT22;3516;47.980;8.808;2022-10-30T09:10:05;21.40;99.90
6954;DHT22;3516;47.980;8.808;2022-10-30T09:12:31;21.40;99.90
6954;DHT22;3516;47.980;8.808;2022-10-30T09:14:58;21.40;99.90
6954;DHT22;3516;47.980;8.808;2022-10-30T09:17:26;21.40;99.90
6954;DHT22;3516;47.980;8.808;2022-10-30T09:19:53;21.40;99.90
6954;DHT22;3516;47.980;8.808;2022-10-30T09:22:19;21.40;99.90
6954;DHT22;3516;47.980;8.808;2022-10-30T09:24:46;21.40;99.90
6954;DHT22;3516;47.980;8.808;2022-10-30T09:27:12;21.40;99.90
6954;DHT22;3516;47.980;8.808;2022-10-30T09:29:39;21.40;99.90
6954;DHT22;3516;47.980;8.808;2022-10-30T09:32:06;21.40;99.90
6954;DHT22;3516;47.980;8.808;2022-10-30T09:34:35;21.50;99.90
6954;DHT22;3516;47.980;8.808;2022-10-30T09:37:02;21.50;99.90
6954;DHT22;3516;47.980;8.808;2022-10-30T09:39:29;21.50;99.90
6954;DHT22;3516;47.980;8.808;2022-10-30T09:42:02;21.50;99.90
6954;DHT22;3516;47.980;8.808;2022-10-30T09:44:34;21.50;99.90
6954;DHT22;3516;47.980;8.808;2022-10-30T09:47:07;21.40;99.90
6954;DHT22;3516;47.980;8.808;2022-10-30T09:49:40;21.50;99.90
6954;DHT22;3516;47.980;8.808;2022-10-30T09:52:14;21.50;99.90
6954;DHT22;3516;47.980;8.808;2022-10-30T09:54:49;21.50;99.90
6954;DHT22;3516;47.980;8.808;2022-10-30T09:57:21;21.50;99.90
6954;DHT22;3516;47.980;8.808;2022-10-30T09:59:53;21.50;99.90
6954;DHT22;3516;47.980;8.808;2022-10-30T10:02:26;21.50;99.90
6954;DHT22;3516;47.980;8.808;2022-10-30T10:04:57;21.50;99.90
6954;DHT22;3516;47.980;8.808;2022-10-30T10:07:26;21.50;99.90
6954;DHT22;3516;47.980;8.808;2022-10-30T10:09:55;21.50;99.90
6954;DHT22;3516;47.980;8.808;2022-10-30T10:12:24;21.50;99.90
6954;DHT22;3516;47.980;8.808;2022-10-30T10:14:53;21.60;99.90
6954;DHT22;3516;47.980;8.808;2022-10-30T10:17:23;21.50;99.90
6954;DHT22;3516;47.980;8.808;2022-10-30T10:19:52;21.60;99.90
6954;DHT22;3516;47.980;8.808;2022-10-30T10:22:23;21.60;99.90
6954;DHT22;3516;47.980;8.808;2022-10-30T10:24:51;21.60;99.90
6954;DHT22;3516;47.980;8.808;2022-10-30T10:27:21;21.60;99.90
6954;DHT22;3516;47.980;8.808;2022-10-30T10:29:51;21.50;99.90
6954;DHT22;3516;47.980;8.808;2022-10-30T10:35:21;21.60;99.90
6954;DHT22;3516;47.980;8.808;2022-10-30T10:37:54;21.60;99.90
6954;DHT22;3516;47.980;8.808;2022-10-30T10:40:25;21.50;99.90
6954;DHT22;3516;47.980;8.808;2022-10-30T10:42:58;21.60;99.90
6954;DHT22;3516;47.980;8.808;2022-10-30T10:45:28;21.60;99.90
6954;DHT22;3516;47.980;8.808;2022-10-30T10:48:15;21.60;99.90
6954;DHT22;3516;47.980;8.808;2022-10-30T10:50:44;21.70;99.90
6954;DHT22;3516;47.980;8.808;2022-10-30T10:53:17;21.70;99.90
6954;DHT22;3516;47.980;8.808;2022-10-30T10:55:46;21.70;99.90
6954;DHT22;3516;47.980;8.808;2022-10-30T10:58:23;21.80;99.90
6954;DHT22;3516;47.980;8.808;2022-10-30T11:00:51;21.80;99.90
6954;DHT22;3516;47.980;8.808;2022-10-30T11:03:19;21.80;99.90
6954;DHT22;3516;47.980;8.808;2022-10-30T11:05:47;21.80;99.90
6954;DHT22;3516;47.980;8.808;2022-10-30T11:08:17;21.90;99.90
6954;DHT22;3516;47.980;8.808;2022-10-30T11:10:44;21.80;99.90
6954;DHT22;3516;47.980;8.808;2022-10-30T11:13:12;21.90;99.90
6954;DHT22;3516;47.980;8.808;2022-10-30T11:15:41;21.80;99.90
6954;DHT22;3516;47.980;8.808;2022-10-30T11:18:11;21.80;99.90
6954;DHT22;3516;47.980;8.808;2022-10-30T11:20:41;21.80;99.90
6954;DHT22;3516;47.980;8.808;2022-10-30T11:25:54;21.80;99.90
6954;DHT22;3516;47.980;8.808;2022-10-30T11:28:25;21.80;99.90
6954;DHT22;3516;47.980;8.808;2022-10-30T11:31:04;21.80;99.90
6954;DHT22;3516;47.980;8.808;2022-10-30T11:33:41;21.80;99.90
6954;DHT22;3516;47.980;8.808;2022-10-30T11:36:08;21.80;99.90
6954;DHT22;3516;47.980;8.808;2022-10-30T11:38:35;21.80;99.90
6954;DHT22;3516;47.980;8.808;2022-10-30T11:41:03;21.80;99.90
6954;DHT22;3516;47.980;8.808;2022-10-30T11:43:30;21.80;99.90
6954;DHT22;3516;47.980;8.808;2022-10-30T11:45:56;21.80;99.90
6954;DHT22;3516;47.980;8.808;2022-10-30T11:48:25;21.90;99.90
6954;DHT22;3516;47.980;8.808;2022-10-30T11:50:54;21.90;99.90
6954;DHT22;3516;47.980;8.808;2022-10-30T11:53:22;21.90;99.90
6954;DHT22;3516;47.980;8.808;2022-10-30T11:55:54;21.90;99.90
6954;DHT22;3516;47.980;8.808;2022-10-30T11:58:23;21.90;99.90
6954;DHT22;3516;47.980;8.808;2022-10-30T12:01:00;21.90;99.90
6954;DHT22;3516;47.980;8.808;2022-10-30T12:03:29;21.90;99.90
6954;DHT22;3516;47.980;8.808;2022-10-30T12:06:09;21.80;99.90
6954;DHT22;3516;47.980;8.808;2022-10-30T12:08:35;21.80;99.90
6954;DHT22;3516;47.980;8.808;2022-10-30T12:11:03;21.80;99.90
6954;DHT22;3516;47.980;8.808;2022-10-30T12:13:34;21.80;99.90
6954;DHT22;3516;47.980;8.808;2022-10-30T12:16:05;21.80;99.90
6954;DHT22;3516;47.980;8.808;2022-10-30T12:18:32;21.80;99.90
6954;DHT22;3516;47.980;8.808;2022-10-30T12:20:59;21.80;99.90
6954;DHT22;3516;47.980;8.808;2022-10-30T12:23:27;21.80;99.90
6954;DHT22;3516;47.980;8.808;2022-10-30T12:25:55;21.80;99.90
6954;DHT22;3516;47.980;8.808;2022-10-30T12:28:23;21.90;99.90
6954;DHT22;3516;47.980;8.808;2022-10-30T12:30:51;21.80;99.90
6954;DHT22;3516;47.980;8.808;2022-10-30T12:33:19;21.80;99.90
6954;DHT22;3516;47.980;8.808;2022-10-30T12:35:48;21.80;99.90
6954;DHT22;3516;47.980;8.808;2022-10-30T12:38:19;21.80;99.90
6954;DHT22;3516;47.980;8.808;2022-10-30T12:40:53;21.80;99.90
6954;DHT22;3516;47.980;8.808;2022-10-30T12:43:22;21.80;99.90
6954;DHT22;3516;47.980;8.808;2022-10-30T12:45:53;21.80;99.90
6954;DHT22;3516;47.980;8.808;2022-10-30T12:48:22;21.80;99.90
6954;DHT22;3516;47.980;8.808;2022-10-30T12:50:52;21.80;99.90
6954;DHT22;3516;47.980;8.808;2022-10-30T12:53:24;21.80;99.90
6954;DHT22;3516;47.980;8.808;2022-10-30T12:55:54;21.80;99.90
6954;DHT22;3516;47.980;8.808;2022-10-30T12:58:22;21.80;99.90
6954;DHT22;3516;47.980;8.808;2022-10-30T13:00:54;21.80;99.90
6954;DHT22;3516;47.980;8.808;2022-10-30T13:03:23;21.80;99.90
6954;DHT22;3516;47.980;8.808;2022-10-30T13:05:53;21.80;99.90
6954;DHT22;3516;47.980;8.808;2022-10-30T13:08:22;21.80;99.90
6954;DHT22;3516;47.980;8.808;2022-10-30T13:10:52;21.80;99.90
6954;DHT22;3516;47.980;8.808;2022-10-30T13:13:19;21.80;99.90
6954;DHT22;3516;47.980;8.808;2022-10-30T13:15:47;21.80;99.90
6954;DHT22;3516;47.980;8.808;2022-10-30T13:18:17;21.80;99.90
6954;DHT22;3516;47.980;8.808;2022-10-30T13:20:47;21.80;99.90
6954;DHT22;3516;47.980;8.808;2022-10-30T13:23:19;21.80;99.90
6954;DHT22;3516;47.980;8.808;2022-10-30T13:25:49;21.80;99.90
6954;DHT22;3516;47.980;8.808;2022-10-30T13:28:20;21.80;99.90
6954;DHT22;3516;47.980;8.808;2022-10-30T13:30:55;21.70;99.90
6954;DHT22;3516;47.980;8.808;2022-10-30T13:33:26;21.70;99.90
6954;DHT22;3516;47.980;8.808;2022-10-30T13:35:55;21.70;99.90
6954;DHT22;3516;47.980;8.808;2022-10-30T13:38:26;21.70;99.90
6954;DHT22;3516;47.980;8.808;2022-10-30T13:40:58;21.70;99.90
6954;DHT22;3516;47.980;8.808;2022-10-30T13:43:27;21.70;99.90
6954;DHT22;3516;47.980;8.808;2022-10-30T13:46:00;21.70;99.90
6954;DHT22;3516;47.980;8.808;2022-10-30T13:48:35;21.80;99.90
6954;DHT22;3516;47.980;8.808;2022-10-30T13:51:24;21.70;99.90
6954;DHT22;3516;47.980;8.808;2022-10-30T13:53:54;21.70;99.90
6954;DHT22;3516;47.980;8.808;2022-10-30T13:56:26;21.70;99.90
6954;DHT22;3516;47.980;8.808;2022-10-30T13:58:55;21.70;99.90
6954;DHT22;3516;47.980;8.808;2022-10-30T14:01:24;21.70;99.90
6954;DHT22;3516;47.980;8.808;2022-10-30T14:03:56;21.70;99.90
6954;DHT22;3516;47.980;8.808;2022-10-30T14:06:27;21.70;99.90
6954;DHT22;3516;47.980;8.808;2022-10-30T14:08:59;21.70;99.90
6954;DHT22;3516;47.980;8.808;2022-10-30T14:11:28;21.80;99.90
6954;DHT22;3516;47.980;8.808;2022-10-30T14:13:55;21.70;99.90
6954;DHT22;3516;47.980;8.808;2022-10-30T14:16:33;21.70;99.90
6954;DHT22;3516;47.980;8.808;2022-10-30T14:19:02;21.70;99.90
6954;DHT22;3516;47.980;8.808;2022-10-30T14:21:30;21.70;99.90
6954;DHT22;3516;47.980;8.808;2022-10-30T14:24:00;21.70;99.90
6954;DHT22;3516;47.980;8.808;2022-10-30T14:26:27;21.70;99.90
6954;DHT22;3516;47.980;8.808;2022-10-30T14:28:54;21.70;99.90
6954;DHT22;3516;47.980;8.808;2022-10-30T14:31:31;21.70;99.90
6954;DHT22;3516;47.980;8.808;2022-10-30T14:33:58;21.70;99.90
6954;DHT22;3516;47.980;8.808;2022-10-30T14:36:46;21.70;99.90
6954;DHT22;3516;47.980;8.808;2022-10-30T14:39:26;21.70;99.90
6954;DHT22;3516;47.980;8.808;2022-10-30T14:41:55;21.70;99.90
6954;DHT22;3516;47.980;8.808;2022-10-30T14:44:45;21.70;99.90
6954;DHT22;3516;47.980;8.808;2022-10-30T14:50:00;21.60;99.90
6954;DHT22;3516;47.980;8.808;2022-10-30T14:52:35;21.60;99.90
6954;DHT22;3516;47.980;8.808;2022-10-30T14:55:14;21.60;99.90
6954;DHT22;3516;47.980;8.808;2022-10-30T14:57:44;21.70;99.90
6954;DHT22;3516;47.980;8.808;2022-10-30T15:02:57;21.60;99.90
6954;DHT22;3516;47.980;8.808;2022-10-30T15:05:36;21.60;99.90
6954;DHT22;3516;47.980;8.808;2022-10-30T15:08:09;21.60;99.90
6954;DHT22;3516;47.980;8.808;2022-10-30T15:10:42;21.60;99.90
6954;DHT22;3516;47.980;8.808;2022-10-30T15:13:15;21.60;99.90
6954;DHT22;3516;47.980;8.808;2022-10-30T15:15:44;21.60;99.90
6954;DHT22;3516;47.980;8.808;2022-10-30T15:18:14;21.60;99.90
6954;DHT22;3516;47.980;8.808;2022-10-30T15:20:41;21.60;99.90
6954;DHT22;3516;47.980;8.808;2022-10-30T15:23:09;21.60;99.90
6954;DHT22;3516;47.980;8.808;2022-10-30T15:25:43;21.60;99.90
6954;DHT22;3516;47.980;8.808;2022-10-30T15:28:12;21.60;99.90
6954;DHT22;3516;47.980;8.808;2022-10-30T15:30:41;21.60;99.90
6954;DHT22;3516;47.980;8.808;2022-10-30T15:33:23;21.60;99.90
6954;DHT22;3516;47.980;8.808;2022-10-30T15:35:49;21.60;99.90
6954;DHT22;3516;47.980;8.808;2022-10-30T15:38:17;21.60;99.90
6954;DHT22;3516;47.980;8.808;2022-10-30T15:40:44;21.60;99.90
6954;DHT22;3516;47.980;8.808;2022-10-30T15:43:11;21.60;99.90
6954;DHT22;3516;47.980;8.808;2022-10-30T15:45:39;21.60;99.90
6954;DHT22;3516;47.980;8.808;2022-10-30T15:48:06;21.60;99.90
6954;DHT22;3516;47.980;8.808;2022-10-30T15:50:34;21.60;99.90
6954;DHT22;3516;47.980;8.808;2022-10-30T15:53:02;21.60;99.90
6954;DHT22;3516;47.980;8.808;2022-10-30T15:55:30;21.60;99.90
6954;DHT22;3516;47.980;8.808;2022-10-30T15:57:57;21.60;99.90
6954;DHT22;3516;47.980;8.808;2022-10-30T16:00:25;21.50;99.90
6954;DHT22;3516;47.980;8.808;2022-10-30T16:02:59;21.60;99.90
6954;DHT22;3516;47.980;8.808;2022-10-30T16:05:26;21.50;99.90
6954;DHT22;3516;47.980;8.808;2022-10-30T16:07:54;21.50;99.90
6954;DHT22;3516;47.980;8.808;2022-10-30T16:10:21;21.50;99.90
6954;DHT22;3516;47.980;8.808;2022-10-30T16:12:49;21.50;99.90
6954;DHT22;3516;47.980;8.808;2022-10-30T16:15:21;21.50;99.90
6954;DHT22;3516;47.980;8.808;2022-10-30T16:17:56;21.50;99.90
6954;DHT22;3516;47.980;8.808;2022-10-30T16:20:24;21.50;99.90
6954;DHT22;3516;47.980;8.808;2022-10-30T16:22:52;21.50;99.90
6954;DHT22;3516;47.980;8.808;2022-10-30T16:25:19;21.50;99.90
6954;DHT22;3516;47.980;8.808;2022-10-30T16:27:46;21.50;99.90
6954;DHT22;3516;47.980;8.808;2022-10-30T16:30:14;21.50;99.90
6954;DHT22;3516;47.980;8.808;2022-10-30T16:32:41;21.50;99.90
6954;DHT22;3516;47.980;8.808;2022-10-30T16:35:10;21.50;99.90
6954;DHT22;3516;47.980;8.808;2022-10-30T16:37:37;21.50;99.90
6954;DHT22;3516;47.980;8.808;2022-10-30T16:40:05;21.50;99.90
6954;DHT22;3516;47.980;8.808;2022-10-30T16:42:34;21.50;99.90
6954;DHT22;3516;47.980;8.808;2022-10-30T16:45:12;21.50;99.90
6954;DHT22;3516;47.980;8.808;2022-10-30T16:47:53;21.50;99.90
6954;DHT22;3516;47.980;8.808;2022-10-30T16:50:22;21.50;99.90
6954;DHT22;3516;47.980;8.808;2022-10-30T16:52:52;21.50;99.90
6954;DHT22;3516;47.980;8.808;2022-10-30T16:55:19;21.40;99.90
6954;DHT22;3516;47.980;8.808;2022-10-30T16:57:47;21.50;99.90
6954;DHT22;3516;47.980;8.808;2022-10-30T17:00:18;21.40;99.90
6954;DHT22;3516;47.980;8.808;2022-10-30T17:02:45;21.40;99.90
6954;DHT22;3516;47.980;8.808;2022-10-30T17:05:17;21.50;99.90
6954;DHT22;3516;47.980;8.808;2022-10-30T17:07:52;21.40;99.90
6954;DHT22;3516;47.980;8.808;2022-10-30T17:10:28;21.40;99.90
6954;DHT22;3516;47.980;8.808;2022-10-30T17:13:04;21.40;99.90
6954;DHT22;3516;47.980;8.808;2022-10-30T17:15:50;21.40;99.90
6954;DHT22;3516;47.980;8.808;2022-10-30T17:18:17;21.50;99.90
6954;DHT22;3516;47.980;8.808;2022-10-30T17:20:47;21.40;99.90
6954;DHT22;3516;47.980;8.808;2022-10-30T17:23:22;21.50;99.90
6954;DHT22;3516;47.980;8.808;2022-10-30T17:25:49;21.50;99.90
6954;DHT22;3516;47.980;8.808;2022-10-30T17:28:23;21.50;99.90
6954;DHT22;3516;47.980;8.808;2022-10-30T17:30:50;21.50;99.90
6954;DHT22;3516;47.980;8.808;2022-10-30T17:36:03;21.50;99.90
6954;DHT22;3516;47.980;8.808;2022-10-30T17:38:30;21.50;99.90
6954;DHT22;3516;47.980;8.808;2022-10-30T17:40:57;21.50;99.90
6954;DHT22;3516;47.980;8.808;2022-10-30T17:43:25;21.50;99.90
6954;DHT22;3516;47.980;8.808;2022-10-30T17:45:52;21.60;99.90
6954;DHT22;3516;47.980;8.808;2022-10-30T17:48:19;21.60;99.90
6954;DHT22;3516;47.980;8.808;2022-10-30T17:50:48;21.60;99.90
6954;DHT22;3516;47.980;8.808;2022-10-30T17:53:16;21.60;99.90
6954;DHT22;3516;47.980;8.808;2022-10-30T17:55:46;21.60;99.90
6954;DHT22;3516;47.980;8.808;2022-10-30T17:58:13;21.60;99.90
6954;DHT22;3516;47.980;8.808;2022-10-30T18:00:40;21.60;99.90
6954;DHT22;3516;47.980;8.808;2022-10-30T18:03:06;21.60;99.90
6954;DHT22;3516;47.980;8.808;2022-10-30T18:05:33;21.70;99.90
6954;DHT22;3516;47.980;8.808;2022-10-30T18:08:00;21.60;99.90
6954;DHT22;3516;47.980;8.808;2022-10-30T18:10:28;21.60;99.90
6954;DHT22;3516;47.980;8.808;2022-10-30T18:12:55;21.60;99.90
6954;DHT22;3516;47.980;8.808;2022-10-30T18:15:23;21.60;99.90
6954;DHT22;3516;47.980;8.808;2022-10-30T18:17:50;21.60;99.90
6954;DHT22;3516;47.980;8.808;2022-10-30T18:20:17;21.60;99.90
6954;DHT22;3516;47.980;8.808;2022-10-30T18:22:44;21.60;99.90
6954;DHT22;3516;47.980;8.808;2022-10-30T18:25:13;21.60;99.90
6954;DHT22;3516;47.980;8.808;2022-10-30T18:27:42;21.60;99.90
6954;DHT22;3516;47.980;8.808;2022-10-30T18:30:09;21.60;99.90
6954;DHT22;3516;47.980;8.808;2022-10-30T18:32:36;21.60;99.90
6954;DHT22;3516;47.980;8.808;2022-10-30T18:35:07;21.60;99.90
6954;DHT22;3516;47.980;8.808;2022-10-30T18:37:35;21.60;99.90
6954;DHT22;3516;47.980;8.808;2022-10-30T18:40:02;21.60;99.90
6954;DHT22;3516;47.980;8.808;2022-10-30T18:42:29;21.60;99.90
6954;DHT22;3516;47.980;8.808;2022-10-30T18:44:57;21.60;99.90
6954;DHT22;3516;47.980;8.808;2022-10-30T18:47:23;21.60;99.90
6954;DHT22;3516;47.980;8.808;2022-10-30T18:49:50;21.60;99.90
6954;DHT22;3516;47.980;8.808;2022-10-30T18:52:16;21.20;99.90
6954;DHT22;3516;47.980;8.808;2022-10-30T18:54:43;21.60;99.90
6954;DHT22;3516;47.980;8.808;2022-10-30T18:57:09;21.50;99.90
6954;DHT22;3516;47.980;8.808;2022-10-30T18:59:36;21.50;99.90
6954;DHT22;3516;47.980;8.808;2022-10-30T19:02:07;21.60;99.90
6954;DHT22;3516;47.980;8.808;2022-10-30T19:04:39;21.50;99.90
6954;DHT22;3516;47.980;8.808;2022-10-30T19:07:07;21.50;99.90
6954;DHT22;3516;47.980;8.808;2022-10-30T19:09:33;21.40;99.90
6954;DHT22;3516;47.980;8.808;2022-10-30T19:12:00;21.80;99.90
6954;DHT22;3516;47.980;8.808;2022-10-30T19:14:26;21.20;99.90
6954;DHT22;3516;47.980;8.808;2022-10-30T19:16:53;21.50;99.90
6954;DHT22;3516;47.980;8.808;2022-10-30T19:19:21;21.50;99.90
6954;DHT22;3516;47.980;8.808;2022-10-30T19:21:47;21.50;99.90
6954;DHT22;3516;47.980;8.808;2022-10-30T19:24:14;21.50;99.90
6954;DHT22;3516;47.980;8.808;2022-10-30T19:26:42;21.50;99.90
6954;DHT22;3516;47.980;8.808;2022-10-30T19:29:08;21.60;99.90
6954;DHT22;3516;47.980;8.808;2022-10-30T19:31:35;22.20;99.90
6954;DHT22;3516;47.980;8.808;2022-10-30T19:34:01;21.60;99.90
6954;DHT22;3516;47.980;8.808;2022-10-30T19:36:30;21.50;99.90
6954;DHT22;3516;47.980;8.808;2022-10-30T19:38:58;21.50;99.90
6954;DHT22;3516;47.980;8.808;2022-10-30T19:41:25;21.50;99.90
6954;DHT22;3516;47.980;8.808;2022-10-30T19:43:51;21.50;99.90
6954;DHT22;3516;47.980;8.808;2022-10-30T19:46:18;21.50;99.90
6954;DHT22;3516;47.980;8.808;2022-10-30T19:48:45;21.50;99.90
6954;DHT22;3516;47.980;8.808;2022-10-30T19:51:12;21.50;99.90
6954;DHT22;3516;47.980;8.808;2022-10-30T19:53:39;21.50;99.90
6954;DHT22;3516;47.980;8.808;2022-10-30T19:56:07;21.50;99.90
6954;DHT22;3516;47.980;8.808;2022-10-30T19:58:34;21.50;99.90
6954;DHT22;3516;47.980;8.808;2022-10-30T20:01:01;21.50;99.90
6954;DHT22;3516;47.980;8.808;2022-10-30T20:03:27;21.50;99.90
6954;DHT22;3516;47.980;8.808;2022-10-30T20:05:54;21.50;99.90
6954;DHT22;3516;47.980;8.808;2022-10-30T20:08:21;21.50;99.90
6954;DHT22;3516;47.980;8.808;2022-10-30T20:10:50;21.50;99.90
6954;DHT22;3516;47.980;8.808;2022-10-30T20:13:17;21.50;99.90
6954;DHT22;3516;47.980;8.808;2022-10-30T20:15:44;21.60;99.90
6954;DHT22;3516;47.980;8.808;2022-10-30T20:18:12;21.60;99.90
6954;DHT22;3516;47.980;8.808;2022-10-30T20:20:40;21.50;99.90
6954;DHT22;3516;47.980;8.808;2022-10-30T20:23:10;21.60;99.90
6954;DHT22;3516;47.980;8.808;2022-10-30T20:25:36;21.40;99.90
6954;DHT22;3516;47.980;8.808;2022-10-30T20:28:12;21.30;99.90
6954;DHT22;3516;47.980;8.808;2022-10-30T20:30:41;21.50;99.90
6954;DHT22;3516;47.980;8.808;2022-10-30T20:33:07;21.50;99.90
6954;DHT22;3516;47.980;8.808;2022-10-30T20:35:35;21.50;99.90
6954;DHT22;3516;47.980;8.808;2022-10-30T20:38:02;21.50;99.90
6954;DHT22;3516;47.980;8.808;2022-10-30T20:40:28;21.50;99.90
6954;DHT22;3516;47.980;8.808;2022-10-30T20:42:55;21.50;99.90
6954;DHT22;3516;47.980;8.808;2022-10-30T20:45:25;22.20;99.90
6954;DHT22;3516;47.980;8.808;2022-10-30T20:47:52;21.50;99.90
6954;DHT22;3516;47.980;8.808;2022-10-30T20:50:18;21.50;99.90
6954;DHT22;3516;47.980;8.808;2022-10-30T20:52:45;21.50;99.90
6954;DHT22;3516;47.980;8.808;2022-10-30T20:55:12;21.50;99.90
6954;DHT22;3516;47.980;8.808;2022-10-30T20:57:39;21.50;99.90
6954;DHT22;3516;47.980;8.808;2022-10-30T21:00:07;21.50;99.90
6954;DHT22;3516;47.980;8.808;2022-10-30T21:02:35;21.50;99.90
6954;DHT22;3516;47.980;8.808;2022-10-30T21:05:02;21.50;99.90
6954;DHT22;3516;47.980;8.808;2022-10-30T21:07:28;21.50;99.90
6954;DHT22;3516;47.980;8.808;2022-10-30T21:09:56;21.50;99.90
6954;DHT22;3516;47.980;8.808;2022-10-30T21:12:22;21.50;99.90
6954;DHT22;3516;47.980;8.808;2022-10-30T21:14:49;21.50;99.90
6954;DHT22;3516;47.980;8.808;2022-10-30T21:17:15;21.50;99.90
6954;DHT22;3516;47.980;8.808;2022-10-30T21:19:43;21.50;99.90
6954;DHT22;3516;47.980;8.808;2022-10-30T21:22:10;21.50;99.90
6954;DHT22;3516;47.980;8.808;2022-10-30T21:24:37;21.50;99.90
6954;DHT22;3516;47.980;8.808;2022-10-30T21:27:03;21.50;99.90
6954;DHT22;3516;47.980;8.808;2022-10-30T21:29:30;21.50;99.90
6954;DHT22;3516;47.980;8.808;2022-10-30T21:31:56;21.50;99.90
6954;DHT22;3516;47.980;8.808;2022-10-30T21:34:23;21.50;99.90
6954;DHT22;3516;47.980;8.808;2022-10-30T21:36:51;21.70;99.90
6954;DHT22;3516;47.980;8.808;2022-10-30T21:39:17;21.50;99.90
6954;DHT22;3516;47.980;8.808;2022-10-30T21:41:44;21.50;99.90